Aktualne dane pomiarowe

Uwaga, wersja testowa! Automatyczne pobieranie danych za pomocą narzędzi lub skryptów to umożliwiających jest zabronione.

Dane meteo z obszaru Polski uzyskane na podstawie depesz SYNOP pobieranych co godzinę z NWS. Najedź myszką na symbol przedstawiony w tabeli, aby uzyskać informacje co do jego znaczenia. Prosimy pamiętać, że to testowa wersja strony, która jeszcze nie jest ukończona. Stworzono również jest krótki FAQ dotyczący korzystania z tej podstrony Anomalie temperatury w chwili obecnej odniesione są do okresu referencyjnego 1951-2016. Okres ten będzie później zmieniony na 1981-2010. Kliknij ikonę aby pobrać plik CSV. Kliknij ikonę aby wygenerować mapę synoptyczną dla danego terminu.

Wybierz Datę:    

        

Śnieżka (12510)

Dane terminowe dla wybranej stacji. Kliknij datę, aby otrzymać dane z tego terminu dla wszystkich stacji.

TemperaturaZachmurzenieWiatrCiśnienieOpadyPogoda
 Data t td wb tx tn tg rh  Nt Nl Cl Cm Ch ws wd g1 g2 wx mslp ppp ch 24h 12h t ww ww w1 w2  
2019-07-07 23:00:00 2.2 2.2 2.1--- 1000.1wxwxwx12wx---- 833.7 0.7---wx---
2019-07-07 22:00:00 2.7 2.1 2.2--- 9650.0wxwxwx9wx---- 833.8 1.2---------
2019-07-07 21:00:00 2.9 2.6 2.6--- 9850.0wxwxwx12wx---- 832.8 -0.2---------
2019-07-07 20:00:00 3.3 2.0 2.4--- 9150.0wxwxwxwx11wx---- 833.0 0.6---------
2019-07-07 19:00:00 3.8 1.3 2.3--- 8450.0wxwxwx13wx---- 832.6 0.5---------
2019-07-07 18:00:00 4.4 1.2 2.5 7.4 4.4- 8050.0wxwxwx10wx---- 833.0 0.6---------
2019-07-07 17:00:00 5.0 1.5 3.0--- 7850.0wxwxwx11wx---- 832.4 -0.3---------
2019-07-07 16:00:00 5.9 1.2 3.3--- 7250.0wxwxwxwxwx12wx---- 832.1 -0.7---------
2019-07-07 15:00:00 6.6 1.7 3.9--- 7150.0wxwxwxwxwx9wx---- 832.4 -0.4---------
2019-07-07 14:00:00 6.6 1.9 4.0--- 7250.0wxwxwxwxwx8wx---- 832.7 0.4---------
2019-07-07 13:00:00 7.0 2.3 4.3--- 7250.0wxwxwxwxwx7wx---- 832.8 1.4---------
2019-07-07 12:00:00 6.3 2.9 4.3--- 7950.0wxwxwxwxwx5wx---- 832.8 2.7--6wx-w1w2--
2019-07-07 11:00:00 4.9 4.8 4.7--- 9940.0wxwxwxwxwx7wx---- 832.3 2.2---------
2019-07-07 10:00:00 6.2 5.0 5.4--- 9230.0wxwxwx14wx---- 831.4 1.3---wx---
2019-07-07 09:00:00 6.1 6.0 5.9--- 990.1wxwxwx18wx---- 830.1 0.0---wx-w1w2--
2019-07-07 08:00:00 6.0 5.9 5.8--- 990.1wx-18wx---- 830.1 -0.9---wx-w1w2--
2019-07-07 07:00:00 6.7 6.6 6.5--- 990.1wx-16wx---- 830.1 -0.8---wx-w1w2--
2019-07-07 06:00:00 7.2 7.1 7.1 14.2 7.1- 990.1wxwxwxwx17wx---- 830.1 -1.1 0.6 0.612wx-w1- 9.4
2019-07-07 05:00:00 7.5 7.2 7.2--- 980.1wx-13wx---- 831.0 0.3---wx-w1w2--
2019-07-07 04:00:00 7.6 7.3 7.3--- 980.1wx-12wx---- 830.9 -1.0---wx-w1w2--
2019-07-07 03:00:00 8.2 7.8 7.9--- 970.3wxwxwx13wx---- 831.2 -1.2---wx-w1--
2019-07-07 02:00:00 8.1 7.5 7.6--- 9640.0wxwxwx19wx---- 830.7 -1.8---wx---
2019-07-07 01:00:00 10.6 6.2 7.9--- 7450.0wxwxwxwx12wx---- 831.9 -0.4---------
2019-07-07 00:00:00 11.2 5.9 8.1--- 7050.0wxwxwxwx13wx---- 832.4 -0.5- 0.06------
2019-07-06 23:00:00 11.7 6.0 8.4--- 6850.0wxwxwx12wx---- 832.5 -0.4---------
2019-07-06 22:00:00 12.7 5.1 8.4--- 6050.0wxwxwxwx15wx---- 832.3 -0.8---------
2019-07-06 21:00:00 11.4 4.6 7.6--- 6350.0wxwxwx9wx---- 832.9 -0.5---------
2019-07-06 20:00:00 12.5 3.2 7.6--- 5350.0wxwxwx9wx---- 832.9 -1.0---------
2019-07-06 19:00:00 12.7 4.4 8.1--- 5750.0wxwxwx8wx---- 833.1 -0.8---------
2019-07-06 18:00:00 14.2 3.9 8.7 16.0 8.3- 5050.0wxwxwxwxwx10wx---- 833.4 -0.6- 0.012------
2019-07-06 17:00:00 14.8 3.9 9.0--- 4850.0wxwxwxwx12wx---- 833.9 0.4---------
2019-07-06 16:00:00 15.0 3.2 8.8--- 4550.0wxwxwxwx10wx---- 833.9 -0.4---------
2019-07-06 15:00:00 15.3 3.1 9.0--- 4450.0wxwxwxwxwx8wx---- 834.0 -0.1---------
2019-07-06 14:00:00 15.2 3.6 9.1--- 4650.0wxwxwxwxwx11wx---- 833.5 -0.9---------
2019-07-06 13:00:00 14.8 3.3 8.8--- 4650.0wxwxwxwxwx7wx---- 834.3 -0.4---------
2019-07-06 12:00:00 14.6 3.4 8.7--- 4750.0wxwxwxwxwx7wx---- 834.1 -0.5- 0.06------
2019-07-06 11:00:00 13.3 4.7 8.6--- 5650.0wxwxwxwxwx5wx---- 834.4 -0.1---------
2019-07-06 10:00:00 12.7 4.6 8.2--- 5850.0wxwxwxwxwx4wx---- 834.7 -0.8---------
2019-07-06 09:00:00 10.9 5.6 7.8--- 7050.0wxwxwxwxwx6wx---- 834.6 -0.8---------
2019-07-06 08:00:00 9.7 5.3 7.1--- 7450.0wxwxwxwxwx9wx---- 834.5 -0.6---------
2019-07-06 07:00:00 9.0 5.4 6.8--- 7850.0wxwxwxwx5wx---- 835.5 0.3---------
2019-07-06 06:00:00 8.3 5.6 6.6 9.3 7.6- 8350.0wxwxwxwxwx6wx---- 835.4 0.3- 0.012----- 1.7
2019-07-06 05:00:00 7.9 5.4 6.3--- 8450.0wxwxwxwxwx12wx---- 835.1 -0.1---------
2019-07-06 04:00:00 8.0 5.1 6.2--- 8250.0wxwxwxwx16wx---- 835.2 -0.1---------
2019-07-06 03:00:00 8.3 4.9 6.2--- 7950.0wxwxwx18wx---- 835.1 -0.4---------
2019-07-06 02:00:00 8.7 4.7 6.3--- 7650.0wxwxwx17wx---- 835.2 -0.6---------
2019-07-06 01:00:00 8.6 4.6 6.2--- 7650.0wx-wx17wx---- 835.3 -0.8---------
2019-07-06 00:00:00 8.8 4.8 6.4--- 7650.0wx-wx18wx---- 835.5 0.2- 0.06------
3.6 ms

 

Print Friendly, PDF & Email